Airport Name : Sabiha Gokcen

Other Name : Istanbul Sabiha

ICAO : LTFJ

IATA :

FAA :

Latitude : 40.898553

Longitude : 29.309219

Country : Turkey

Local Date and Time : 5/19/2019 9:47:00 AM

 

TAF (Terminal Aerodrome Forecast)

TAF LTFJ 190440Z 1906/2006 21007KT CAVOK

 

METAR (METeorological Aerodrome Report)

LTFJ 190620Z 24008KT 210V280 CAVOK 21/16 Q1012 NOSIG RMK RWY24 23006KT 160V270

LTFJ 190550Z 23007KT 190V260 CAVOK 20/15 Q1012 NOSIG RMK RWY24 22007KT

LTFJ 190520Z 22006KT 180V250 CAVOK 19/16 Q1011 NOSIG RMK RWY24 21007KT

LTFJ 190450Z 24007KT 210V280 CAVOK 19/15 Q1011 NOSIG RMK RWY24 23006KT 180V270

LTFJ 190420Z 22006KT 170V260 CAVOK 19/15 Q1011 NOSIG RMK RWY24 21006KT 190V260

LTFJ 190350Z 25006KT CAVOK 18/15 Q1011 NOSIG RMK RWY24 25007KT

LTFJ 190320Z 19003KT 110V270 CAVOK 18/15 Q1011 NOSIG RMK RWY24 24008KT

LTFJ 190250Z 17005KT 150V220 CAVOK 18/15 Q1010 NOSIG RMK RWY24 24007KT